Monday, June 18, 2018, 8:32 PM EDT
Back to Local

KGON, Groton/new London Airport

Location: Groton, CT, United States Lat: 41.333
Local Time: 8:32 PM EDT ( 0:32 GMT) Lon: -72.05
Time Zone: US/Eastern Elev: 9 ft

Show me the last for .
Show Decoded

2018-06-18 19:56 METAR KGON 182356Z 23011KT 10SM CLR 22/17 A2980 RMK AO2 SLP091 T02170167 10244
                 20217 56016 =
2018-06-18 18:56 METAR KGON 182256Z 21008KT 10SM CLR 22/16 A2981 RMK AO2 SLP093 T02220161 =
2018-06-18 17:56 METAR KGON 182156Z 24006KT 10SM CLR 23/17 A2982 RMK AO2 SLP098 T02280167 =
2018-06-18 16:56 METAR KGON 182056Z 23007KT 190V260 10SM CLR 23/17 A2985 RMK AO2 SLP107 T02280167
                 56024 =
2018-06-18 15:56 METAR KGON 181956Z 21009KT 10SM CLR 23/18 A2987 RMK AO2 SLP114 T02330178 =
2018-06-18 14:56 METAR KGON 181856Z 22010KT 10SM CLR 24/17 A2990 RMK AO2 SLP123 T02390172 =
2018-06-18 13:56 METAR KGON 181756Z 21014KT 10SM CLR 24/17 A2992 RMK AO2 SLP131 T02440172 10250
                 20194 58020 =
2018-06-18 12:56 METAR KGON 181656Z 21008KT 10SM CLR 24/18 A2995 RMK AO2 SLP141 T02390183 =
2018-06-18 11:56 METAR KGON 181556Z 22012KT 10SM CLR 24/19 A2995 RMK AO2 SLP142 T02390189 =
2018-06-18 10:56 METAR KGON 181456Z 22008KT 10SM CLR 24/19 A2998 RMK AO2 SLP151 T02390194 58015 =
2018-06-18 09:56 METAR KGON 181356Z 22011KT 10SM CLR 22/19 A2999 RMK AO2 SLP156 T02220189 =
2018-06-18 08:56 METAR KGON 181256Z 24007KT 10SM CLR 21/18 A3001 RMK AO2 SLP163 T02060183 =
2018-06-18 07:56 METAR KGON 181156Z 20004KT 10SM BR CLR 19/18 A3002 RMK AO2 SLP166 T01940183
                 10194 20156 56008 =
2018-06-18 06:56 METAR KGON 181056Z 22006KT 5SM BR CLR 19/18 A3003 RMK AO2 SLP168 T01890178 =
2018-06-18 05:56 METAR KGON 180956Z AUTO 00000KT 6SM BR CLR 17/16 A3003 RMK AO2 SLP170 T01720161
                 =
2018-06-18 04:56 METAR KGON 180856Z AUTO 21004KT 9SM CLR 17/16 A3004 RMK AO2 SLP173 T01670161
                 55005 =
2018-06-18 03:56 METAR KGON 180756Z AUTO 18004KT 7SM CLR 16/16 A3004 RMK AO2 SLP172 T01610156 =
2018-06-18 02:56 METAR KGON 180656Z AUTO 00000KT 3SM BR CLR 16/14 A3006 RMK AO2 SLP178 T01560144
                 =
2018-06-18 02:40 METAR KGON 180640Z AUTO 00000KT 1 1/4SM BR CLR 16/15 A3006 RMK AO2 VIS 1/2V3
                 T01560150 =
2018-06-18 02:28 METAR KGON 180628Z AUTO 00000KT 2SM BR CLR 16/14 A3006 RMK AO2 T01560144 =
2018-06-18 01:56 METAR KGON 180556Z AUTO 00000KT 4SM BR CLR 16/15 A3006 RMK AO2 SLP179 T01610150
                 10211 20156 58002 =
2018-06-18 00:56 METAR KGON 180456Z AUTO 00000KT 7SM CLR 17/15 A3007 RMK AO2 SLP182 T01670150
                 402610128 =
2018-06-17 23:56 METAR KGON 180356Z AUTO 17003KT 9SM CLR 17/15 A3006 RMK AO2 SLP180 T01670150 =
2018-06-17 22:56 METAR KGON 180256Z AUTO 00000KT 10SM CLR 17/16 A3007 RMK AO2 SLP181 T01720156
                 56001 =
2018-06-17 21:56 METAR KGON 180156Z 00000KT 10SM CLR 18/16 A3007 RMK AO2 SLP183 T01830156 =
2018-06-17 20:56 METAR KGON 180056Z 16004KT 10SM CLR 19/15 A3006 RMK AO2 SLP180 T01940150 =

Support USWX by starting your Amazon purchase here.